sensor_id;sensor_type;location;lat;lon;timestamp;temperature;humidity
15900;DHT22;8048;50.644;6.184;2023-07-31T00:01:59;15.60;99.90
15900;DHT22;8048;50.644;6.184;2023-07-31T00:04:25;15.60;99.90
15900;DHT22;8048;50.644;6.184;2023-07-31T00:06:50;15.60;99.90
15900;DHT22;8048;50.644;6.184;2023-07-31T00:09:16;15.60;99.90
15900;DHT22;8048;50.644;6.184;2023-07-31T00:11:41;15.60;99.90
15900;DHT22;8048;50.644;6.184;2023-07-31T00:14:07;15.60;99.90
15900;DHT22;8048;50.644;6.184;2023-07-31T00:16:32;15.60;99.90
15900;DHT22;8048;50.644;6.184;2023-07-31T00:18:58;15.60;99.90
15900;DHT22;8048;50.644;6.184;2023-07-31T00:21:23;15.60;99.90
15900;DHT22;8048;50.644;6.184;2023-07-31T00:23:49;15.70;99.90
15900;DHT22;8048;50.644;6.184;2023-07-31T00:26:14;15.70;99.90
15900;DHT22;8048;50.644;6.184;2023-07-31T00:28:40;15.70;99.90
15900;DHT22;8048;50.644;6.184;2023-07-31T00:31:05;15.60;99.90
15900;DHT22;8048;50.644;6.184;2023-07-31T00:33:31;15.60;99.90
15900;DHT22;8048;50.644;6.184;2023-07-31T00:35:57;15.60;99.90
15900;DHT22;8048;50.644;6.184;2023-07-31T00:38:22;15.60;99.90
15900;DHT22;8048;50.644;6.184;2023-07-31T00:40:48;15.60;99.90
15900;DHT22;8048;50.644;6.184;2023-07-31T00:43:13;15.60;99.90
15900;DHT22;8048;50.644;6.184;2023-07-31T00:45:39;15.60;99.90
15900;DHT22;8048;50.644;6.184;2023-07-31T00:48:05;15.60;99.90
15900;DHT22;8048;50.644;6.184;2023-07-31T00:50:35;15.60;99.90
15900;DHT22;8048;50.644;6.184;2023-07-31T00:53:01;15.60;99.90
15900;DHT22;8048;50.644;6.184;2023-07-31T00:55:26;15.60;99.90
15900;DHT22;8048;50.644;6.184;2023-07-31T00:57:52;15.60;99.90
15900;DHT22;8048;50.644;6.184;2023-07-31T01:00:21;15.60;99.90
15900;DHT22;8048;50.644;6.184;2023-07-31T01:02:47;15.60;99.90
15900;DHT22;8048;50.644;6.184;2023-07-31T01:05:13;15.60;99.90
15900;DHT22;8048;50.644;6.184;2023-07-31T01:08:50;15.60;99.90
15900;DHT22;8048;50.644;6.184;2023-07-31T01:10:50;15.60;99.90
15900;DHT22;8048;50.644;6.184;2023-07-31T01:13:18;15.60;99.90
15900;DHT22;8048;50.644;6.184;2023-07-31T01:15:44;15.50;99.90
15900;DHT22;8048;50.644;6.184;2023-07-31T01:18:09;15.50;99.90
15900;DHT22;8048;50.644;6.184;2023-07-31T01:20:35;15.50;99.90
15900;DHT22;8048;50.644;6.184;2023-07-31T01:26:12;15.50;99.90
15900;DHT22;8048;50.644;6.184;2023-07-31T01:28:45;15.50;99.90
15900;DHT22;8048;50.644;6.184;2023-07-31T01:31:16;15.50;99.90
15900;DHT22;8048;50.644;6.184;2023-07-31T01:33:42;15.40;99.90
15900;DHT22;8048;50.644;6.184;2023-07-31T01:36:08;15.40;99.90
15900;DHT22;8048;50.644;6.184;2023-07-31T01:38:34;15.50;99.90
15900;DHT22;8048;50.644;6.184;2023-07-31T01:40:59;15.40;99.90
15900;DHT22;8048;50.644;6.184;2023-07-31T01:43:25;15.50;99.90
15900;DHT22;8048;50.644;6.184;2023-07-31T01:45:50;15.50;99.90
15900;DHT22;8048;50.644;6.184;2023-07-31T01:48:16;15.50;99.90
15900;DHT22;8048;50.644;6.184;2023-07-31T01:50:41;15.50;99.90
15900;DHT22;8048;50.644;6.184;2023-07-31T01:53:07;15.60;99.90
15900;DHT22;8048;50.644;6.184;2023-07-31T01:55:32;15.60;99.90
15900;DHT22;8048;50.644;6.184;2023-07-31T01:57:58;15.50;99.90
15900;DHT22;8048;50.644;6.184;2023-07-31T02:00:24;15.50;99.90
15900;DHT22;8048;50.644;6.184;2023-07-31T02:02:49;15.40;99.90
15900;DHT22;8048;50.644;6.184;2023-07-31T02:05:15;15.40;99.90
15900;DHT22;8048;50.644;6.184;2023-07-31T02:07:40;15.40;99.90
15900;DHT22;8048;50.644;6.184;2023-07-31T02:10:06;15.40;99.90
15900;DHT22;8048;50.644;6.184;2023-07-31T02:12:31;15.40;99.90
15900;DHT22;8048;50.644;6.184;2023-07-31T02:14:58;15.50;99.90
15900;DHT22;8048;50.644;6.184;2023-07-31T02:17:24;15.50;99.90
15900;DHT22;8048;50.644;6.184;2023-07-31T02:19:50;15.40;99.90
15900;DHT22;8048;50.644;6.184;2023-07-31T02:22:15;15.40;99.90
15900;DHT22;8048;50.644;6.184;2023-07-31T02:24:41;15.40;99.90
15900;DHT22;8048;50.644;6.184;2023-07-31T02:27:06;15.40;99.90
15900;DHT22;8048;50.644;6.184;2023-07-31T02:29:32;15.40;99.90
15900;DHT22;8048;50.644;6.184;2023-07-31T02:31:57;15.30;99.90
15900;DHT22;8048;50.644;6.184;2023-07-31T02:34:23;15.30;99.90
15900;DHT22;8048;50.644;6.184;2023-07-31T02:36:48;15.30;99.90
15900;DHT22;8048;50.644;6.184;2023-07-31T02:39:14;15.40;99.90
15900;DHT22;8048;50.644;6.184;2023-07-31T02:41:39;15.40;99.90
15900;DHT22;8048;50.644;6.184;2023-07-31T02:44:05;15.50;99.90
15900;DHT22;8048;50.644;6.184;2023-07-31T02:46:30;15.50;99.90
15900;DHT22;8048;50.644;6.184;2023-07-31T02:48:56;15.50;99.90
15900;DHT22;8048;50.644;6.184;2023-07-31T02:51:22;15.40;99.90
15900;DHT22;8048;50.644;6.184;2023-07-31T02:53:48;15.50;99.90
15900;DHT22;8048;50.644;6.184;2023-07-31T02:56:13;15.50;99.90
15900;DHT22;8048;50.644;6.184;2023-07-31T02:58:39;15.50;99.90
15900;DHT22;8048;50.644;6.184;2023-07-31T03:01:04;15.50;99.90
15900;DHT22;8048;50.644;6.184;2023-07-31T03:03:30;15.50;99.90
15900;DHT22;8048;50.644;6.184;2023-07-31T03:05:56;15.50;99.90
15900;DHT22;8048;50.644;6.184;2023-07-31T03:08:21;15.50;99.90
15900;DHT22;8048;50.644;6.184;2023-07-31T03:10:47;15.50;99.90
15900;DHT22;8048;50.644;6.184;2023-07-31T03:13:12;15.50;99.90
15900;DHT22;8048;50.644;6.184;2023-07-31T03:15:38;15.50;99.90
15900;DHT22;8048;50.644;6.184;2023-07-31T03:18:03;15.50;99.90
15900;DHT22;8048;50.644;6.184;2023-07-31T03:20:29;15.50;99.90
15900;DHT22;8048;50.644;6.184;2023-07-31T03:22:54;15.50;99.90
15900;DHT22;8048;50.644;6.184;2023-07-31T03:25:20;15.50;99.90
15900;DHT22;8048;50.644;6.184;2023-07-31T03:27:45;15.50;99.90
15900;DHT22;8048;50.644;6.184;2023-07-31T03:30:11;15.50;99.90
15900;DHT22;8048;50.644;6.184;2023-07-31T03:32:36;15.50;99.90
15900;DHT22;8048;50.644;6.184;2023-07-31T03:35:02;15.50;99.90
15900;DHT22;8048;50.644;6.184;2023-07-31T03:37:28;15.50;99.90
15900;DHT22;8048;50.644;6.184;2023-07-31T03:39:54;15.50;99.90
15900;DHT22;8048;50.644;6.184;2023-07-31T03:42:20;15.40;99.90
15900;DHT22;8048;50.644;6.184;2023-07-31T03:44:45;15.40;99.90
15900;DHT22;8048;50.644;6.184;2023-07-31T03:47:11;15.50;99.90
15900;DHT22;8048;50.644;6.184;2023-07-31T03:49:36;15.50;99.90
15900;DHT22;8048;50.644;6.184;2023-07-31T03:52:02;15.50;99.90
15900;DHT22;8048;50.644;6.184;2023-07-31T03:54:27;15.50;99.90
15900;DHT22;8048;50.644;6.184;2023-07-31T03:56:53;15.60;99.90
15900;DHT22;8048;50.644;6.184;2023-07-31T03:59:18;15.50;99.90
15900;DHT22;8048;50.644;6.184;2023-07-31T04:01:44;15.50;99.90
15900;DHT22;8048;50.644;6.184;2023-07-31T04:04:09;15.60;99.90
15900;DHT22;8048;50.644;6.184;2023-07-31T04:06:35;15.60;99.90
15900;DHT22;8048;50.644;6.184;2023-07-31T04:09:02;15.60;99.90
15900;DHT22;8048;50.644;6.184;2023-07-31T04:11:27;15.50;99.90
15900;DHT22;8048;50.644;6.184;2023-07-31T04:13:53;15.60;99.90
15900;DHT22;8048;50.644;6.184;2023-07-31T04:16:18;15.60;99.90
15900;DHT22;8048;50.644;6.184;2023-07-31T04:18:44;15.60;99.90
15900;DHT22;8048;50.644;6.184;2023-07-31T04:21:09;15.60;99.90
15900;DHT22;8048;50.644;6.184;2023-07-31T04:23:35;15.50;99.90
15900;DHT22;8048;50.644;6.184;2023-07-31T04:26:01;15.60;99.90
15900;DHT22;8048;50.644;6.184;2023-07-31T04:28:26;15.50;99.90
15900;DHT22;8048;50.644;6.184;2023-07-31T04:30:52;15.50;99.90
15900;DHT22;8048;50.644;6.184;2023-07-31T04:33:18;15.50;99.90
15900;DHT22;8048;50.644;6.184;2023-07-31T04:35:53;15.40;99.90
15900;DHT22;8048;50.644;6.184;2023-07-31T04:38:22;15.50;99.90
15900;DHT22;8048;50.644;6.184;2023-07-31T04:40:48;15.50;99.90
15900;DHT22;8048;50.644;6.184;2023-07-31T04:43:14;15.40;99.90
15900;DHT22;8048;50.644;6.184;2023-07-31T04:45:42;15.50;99.90
15900;DHT22;8048;50.644;6.184;2023-07-31T04:48:08;15.50;99.90
15900;DHT22;8048;50.644;6.184;2023-07-31T04:50:33;15.50;99.90
15900;DHT22;8048;50.644;6.184;2023-07-31T04:52:59;15.50;99.90
15900;DHT22;8048;50.644;6.184;2023-07-31T04:55:24;15.50;99.90
15900;DHT22;8048;50.644;6.184;2023-07-31T04:57:50;15.60;99.90
15900;DHT22;8048;50.644;6.184;2023-07-31T05:00:16;15.50;99.90
15900;DHT22;8048;50.644;6.184;2023-07-31T05:02:41;15.60;99.90
15900;DHT22;8048;50.644;6.184;2023-07-31T05:05:07;15.70;99.90
15900;DHT22;8048;50.644;6.184;2023-07-31T05:07:32;15.60;99.90
15900;DHT22;8048;50.644;6.184;2023-07-31T05:09:58;15.70;99.90
15900;DHT22;8048;50.644;6.184;2023-07-31T05:12:24;15.70;99.90
15900;DHT22;8048;50.644;6.184;2023-07-31T05:14:49;15.70;99.90
15900;DHT22;8048;50.644;6.184;2023-07-31T05:17:15;15.80;99.90
15900;DHT22;8048;50.644;6.184;2023-07-31T05:19:40;15.80;99.90
15900;DHT22;8048;50.644;6.184;2023-07-31T05:22:06;15.70;99.90
15900;DHT22;8048;50.644;6.184;2023-07-31T05:24:31;15.80;99.90
15900;DHT22;8048;50.644;6.184;2023-07-31T05:26:57;15.70;99.90
15900;DHT22;8048;50.644;6.184;2023-07-31T05:29:22;15.70;99.90
15900;DHT22;8048;50.644;6.184;2023-07-31T05:31:48;15.70;99.90
15900;DHT22;8048;50.644;6.184;2023-07-31T05:34:13;15.70;99.90
15900;DHT22;8048;50.644;6.184;2023-07-31T05:36:39;15.70;99.90
15900;DHT22;8048;50.644;6.184;2023-07-31T05:39:04;15.70;99.90
15900;DHT22;8048;50.644;6.184;2023-07-31T05:41:34;15.70;99.90
15900;DHT22;8048;50.644;6.184;2023-07-31T05:44:00;15.80;99.90
15900;DHT22;8048;50.644;6.184;2023-07-31T05:46:25;15.80;99.90
15900;DHT22;8048;50.644;6.184;2023-07-31T05:48:51;15.80;99.90
15900;DHT22;8048;50.644;6.184;2023-07-31T05:51:16;15.80;99.90
15900;DHT22;8048;50.644;6.184;2023-07-31T05:53:42;15.80;99.90
15900;DHT22;8048;50.644;6.184;2023-07-31T05:56:09;15.80;99.90
15900;DHT22;8048;50.644;6.184;2023-07-31T05:58:34;15.80;99.90
15900;DHT22;8048;50.644;6.184;2023-07-31T06:01:00;15.80;99.90
15900;DHT22;8048;50.644;6.184;2023-07-31T06:03:25;15.80;99.90
15900;DHT22;8048;50.644;6.184;2023-07-31T06:05:51;16.00;99.90
15900;DHT22;8048;50.644;6.184;2023-07-31T06:08:16;16.00;99.90
15900;DHT22;8048;50.644;6.184;2023-07-31T06:10:42;16.00;99.90
15900;DHT22;8048;50.644;6.184;2023-07-31T06:13:07;16.10;99.90
15900;DHT22;8048;50.644;6.184;2023-07-31T06:15:33;16.10;99.90
15900;DHT22;8048;50.644;6.184;2023-07-31T06:17:59;16.10;99.90
15900;DHT22;8048;50.644;6.184;2023-07-31T06:20:27;16.10;99.90
15900;DHT22;8048;50.644;6.184;2023-07-31T06:22:53;16.10;99.90
15900;DHT22;8048;50.644;6.184;2023-07-31T06:25:18;16.20;99.90
15900;DHT22;8048;50.644;6.184;2023-07-31T06:27:44;16.20;99.90
15900;DHT22;8048;50.644;6.184;2023-07-31T06:30:10;16.20;99.90
15900;DHT22;8048;50.644;6.184;2023-07-31T06:32:35;16.20;99.90
15900;DHT22;8048;50.644;6.184;2023-07-31T06:35:01;16.30;99.90
15900;DHT22;8048;50.644;6.184;2023-07-31T06:37:26;16.40;99.90
15900;DHT22;8048;50.644;6.184;2023-07-31T06:39:52;16.40;99.90
15900;DHT22;8048;50.644;6.184;2023-07-31T06:42:18;16.50;99.90
15900;DHT22;8048;50.644;6.184;2023-07-31T06:44:43;16.60;99.90
15900;DHT22;8048;50.644;6.184;2023-07-31T06:47:09;16.60;99.90
15900;DHT22;8048;50.644;6.184;2023-07-31T06:49:34;16.60;99.90
15900;DHT22;8048;50.644;6.184;2023-07-31T06:52:00;16.60;99.90
15900;DHT22;8048;50.644;6.184;2023-07-31T06:54:25;16.70;99.90
15900;DHT22;8048;50.644;6.184;2023-07-31T06:56:51;16.60;99.90
15900;DHT22;8048;50.644;6.184;2023-07-31T06:59:16;16.60;99.90
15900;DHT22;8048;50.644;6.184;2023-07-31T07:01:42;16.60;99.90
15900;DHT22;8048;50.644;6.184;2023-07-31T07:04:07;16.50;99.90
15900;DHT22;8048;50.644;6.184;2023-07-31T07:06:33;16.60;99.90
15900;DHT22;8048;50.644;6.184;2023-07-31T07:08:58;16.60;99.90
15900;DHT22;8048;50.644;6.184;2023-07-31T07:11:24;16.60;99.90
15900;DHT22;8048;50.644;6.184;2023-07-31T07:13:49;16.60;99.90
15900;DHT22;8048;50.644;6.184;2023-07-31T07:16:15;16.50;99.90
15900;DHT22;8048;50.644;6.184;2023-07-31T07:18:40;16.50;99.90
15900;DHT22;8048;50.644;6.184;2023-07-31T07:21:06;16.40;99.90
15900;DHT22;8048;50.644;6.184;2023-07-31T07:23:31;16.30;99.90
15900;DHT22;8048;50.644;6.184;2023-07-31T07:25:57;16.30;99.90
15900;DHT22;8048;50.644;6.184;2023-07-31T07:28:23;16.30;99.90
15900;DHT22;8048;50.644;6.184;2023-07-31T07:30:54;16.30;99.90
15900;DHT22;8048;50.644;6.184;2023-07-31T07:33:20;16.30;99.90
15900;DHT22;8048;50.644;6.184;2023-07-31T07:35:45;16.30;99.90
15900;DHT22;8048;50.644;6.184;2023-07-31T07:38:13;16.20;99.90
15900;DHT22;8048;50.644;6.184;2023-07-31T07:40:40;16.30;99.90
15900;DHT22;8048;50.644;6.184;2023-07-31T07:43:05;16.30;99.90
15900;DHT22;8048;50.644;6.184;2023-07-31T07:45:31;16.30;99.90
15900;DHT22;8048;50.644;6.184;2023-07-31T07:47:56;16.30;99.90
15900;DHT22;8048;50.644;6.184;2023-07-31T07:50:22;16.30;99.90
15900;DHT22;8048;50.644;6.184;2023-07-31T07:52:47;16.40;99.90
15900;DHT22;8048;50.644;6.184;2023-07-31T07:55:13;16.40;99.90
15900;DHT22;8048;50.644;6.184;2023-07-31T07:57:38;16.40;99.90
15900;DHT22;8048;50.644;6.184;2023-07-31T08:00:05;16.40;99.90
15900;DHT22;8048;50.644;6.184;2023-07-31T08:02:31;16.40;99.90
15900;DHT22;8048;50.644;6.184;2023-07-31T08:04:56;16.40;99.90
15900;DHT22;8048;50.644;6.184;2023-07-31T08:07:22;16.30;99.90
15900;DHT22;8048;50.644;6.184;2023-07-31T08:09:47;16.30;99.90
15900;DHT22;8048;50.644;6.184;2023-07-31T08:12:13;16.30;99.90
15900;DHT22;8048;50.644;6.184;2023-07-31T08:14:38;16.30;99.90
15900;DHT22;8048;50.644;6.184;2023-07-31T08:17:04;16.40;99.90
15900;DHT22;8048;50.644;6.184;2023-07-31T08:19:29;16.40;99.90
15900;DHT22;8048;50.644;6.184;2023-07-31T08:21:55;16.50;99.90
15900;DHT22;8048;50.644;6.184;2023-07-31T08:24:20;16.50;99.90
15900;DHT22;8048;50.644;6.184;2023-07-31T08:26:47;16.60;99.90
15900;DHT22;8048;50.644;6.184;2023-07-31T08:29:12;16.60;99.90
15900;DHT22;8048;50.644;6.184;2023-07-31T08:31:38;16.60;99.90
15900;DHT22;8048;50.644;6.184;2023-07-31T08:34:03;16.60;99.90
15900;DHT22;8048;50.644;6.184;2023-07-31T08:36:29;16.60;99.90
15900;DHT22;8048;50.644;6.184;2023-07-31T08:38:54;16.50;99.90
15900;DHT22;8048;50.644;6.184;2023-07-31T08:41:20;16.60;99.90
15900;DHT22;8048;50.644;6.184;2023-07-31T08:43:46;16.70;99.90
15900;DHT22;8048;50.644;6.184;2023-07-31T08:46:11;16.70;99.90
15900;DHT22;8048;50.644;6.184;2023-07-31T08:48:38;16.90;99.90
15900;DHT22;8048;50.644;6.184;2023-07-31T08:51:06;16.90;99.90
15900;DHT22;8048;50.644;6.184;2023-07-31T08:53:32;16.90;99.90
15900;DHT22;8048;50.644;6.184;2023-07-31T08:55:58;17.00;99.90
15900;DHT22;8048;50.644;6.184;2023-07-31T08:58:25;17.00;99.90
15900;DHT22;8048;50.644;6.184;2023-07-31T09:00:54;17.10;99.90
15900;DHT22;8048;50.644;6.184;2023-07-31T09:03:23;17.10;99.90
15900;DHT22;8048;50.644;6.184;2023-07-31T09:05:49;17.10;99.90
15900;DHT22;8048;50.644;6.184;2023-07-31T09:08:18;17.10;99.90
15900;DHT22;8048;50.644;6.184;2023-07-31T09:10:45;17.10;99.90
15900;DHT22;8048;50.644;6.184;2023-07-31T09:13:15;17.10;99.90
15900;DHT22;8048;50.644;6.184;2023-07-31T09:15:44;17.00;99.90
15900;DHT22;8048;50.644;6.184;2023-07-31T09:18:09;17.00;99.90
15900;DHT22;8048;50.644;6.184;2023-07-31T09:20:35;17.00;99.90
15900;DHT22;8048;50.644;6.184;2023-07-31T09:23:14;17.00;99.90
15900;DHT22;8048;50.644;6.184;2023-07-31T09:25:43;17.00;99.90
15900;DHT22;8048;50.644;6.184;2023-07-31T09:28:10;17.10;99.90
15900;DHT22;8048;50.644;6.184;2023-07-31T09:30:51;17.10;99.90
15900;DHT22;8048;50.644;6.184;2023-07-31T09:33:18;17.10;99.90
15900;DHT22;8048;50.644;6.184;2023-07-31T09:35:44;17.20;99.90
15900;DHT22;8048;50.644;6.184;2023-07-31T09:38:11;17.30;99.90
15900;DHT22;8048;50.644;6.184;2023-07-31T09:40:42;17.30;99.90
15900;DHT22;8048;50.644;6.184;2023-07-31T09:43:12;17.40;99.90
15900;DHT22;8048;50.644;6.184;2023-07-31T09:45:40;17.50;99.90
15900;DHT22;8048;50.644;6.184;2023-07-31T09:50:37;17.60;99.90
15900;DHT22;8048;50.644;6.184;2023-07-31T09:53:04;17.80;99.90
15900;DHT22;8048;50.644;6.184;2023-07-31T09:55:30;17.80;99.90
15900;DHT22;8048;50.644;6.184;2023-07-31T09:57:57;18.00;99.90
15900;DHT22;8048;50.644;6.184;2023-07-31T10:00:23;18.10;99.90
15900;DHT22;8048;50.644;6.184;2023-07-31T10:02:50;18.10;99.90
15900;DHT22;8048;50.644;6.184;2023-07-31T10:05:16;18.20;99.90
15900;DHT22;8048;50.644;6.184;2023-07-31T10:07:48;18.20;99.90
15900;DHT22;8048;50.644;6.184;2023-07-31T10:10:16;18.40;99.90
15900;DHT22;8048;50.644;6.184;2023-07-31T10:12:42;18.40;99.90
15900;DHT22;8048;50.644;6.184;2023-07-31T10:15:09;18.20;99.90
15900;DHT22;8048;50.644;6.184;2023-07-31T10:17:35;18.20;99.90
15900;DHT22;8048;50.644;6.184;2023-07-31T10:20:02;18.10;99.90
15900;DHT22;8048;50.644;6.184;2023-07-31T10:22:31;18.10;99.90
15900;DHT22;8048;50.644;6.184;2023-07-31T10:24:58;18.00;99.90
15900;DHT22;8048;50.644;6.184;2023-07-31T10:27:24;18.00;99.90
15900;DHT22;8048;50.644;6.184;2023-07-31T10:29:50;17.90;99.90
15900;DHT22;8048;50.644;6.184;2023-07-31T10:32:17;18.00;99.90
15900;DHT22;8048;50.644;6.184;2023-07-31T10:34:43;17.80;99.90
15900;DHT22;8048;50.644;6.184;2023-07-31T10:40:05;17.80;99.90
15900;DHT22;8048;50.644;6.184;2023-07-31T10:42:36;17.80;99.90
15900;DHT22;8048;50.644;6.184;2023-07-31T10:45:07;17.70;99.90
15900;DHT22;8048;50.644;6.184;2023-07-31T10:47:43;17.60;99.90
15900;DHT22;8048;50.644;6.184;2023-07-31T10:53:02;17.50;99.90
15900;DHT22;8048;50.644;6.184;2023-07-31T10:58:06;17.60;99.90
15900;DHT22;8048;50.644;6.184;2023-07-31T11:00:32;17.60;99.90
15900;DHT22;8048;50.644;6.184;2023-07-31T11:03:08;17.60;99.90
15900;DHT22;8048;50.644;6.184;2023-07-31T11:06:01;17.60;99.90
15900;DHT22;8048;50.644;6.184;2023-07-31T11:08:30;17.50;99.90
15900;DHT22;8048;50.644;6.184;2023-07-31T11:15:54;17.50;99.90
15900;DHT22;8048;50.644;6.184;2023-07-31T11:18:19;17.60;99.90
15900;DHT22;8048;50.644;6.184;2023-07-31T11:20:45;17.60;99.90
15900;DHT22;8048;50.644;6.184;2023-07-31T11:23:11;17.60;99.90
15900;DHT22;8048;50.644;6.184;2023-07-31T11:25:38;17.60;99.90
15900;DHT22;8048;50.644;6.184;2023-07-31T11:28:10;17.60;99.90
15900;DHT22;8048;50.644;6.184;2023-07-31T11:30:36;17.70;99.90
15900;DHT22;8048;50.644;6.184;2023-07-31T11:33:03;17.80;99.90
15900;DHT22;8048;50.644;6.184;2023-07-31T11:35:34;17.80;99.90
15900;DHT22;8048;50.644;6.184;2023-07-31T11:38:00;17.90;99.90
15900;DHT22;8048;50.644;6.184;2023-07-31T11:40:26;17.90;99.90
15900;DHT22;8048;50.644;6.184;2023-07-31T11:42:58;17.90;99.90
15900;DHT22;8048;50.644;6.184;2023-07-31T11:45:30;17.90;99.90
15900;DHT22;8048;50.644;6.184;2023-07-31T11:47:56;17.90;99.90
15900;DHT22;8048;50.644;6.184;2023-07-31T11:50:23;17.90;99.90
15900;DHT22;8048;50.644;6.184;2023-07-31T11:53:00;17.90;99.90
15900;DHT22;8048;50.644;6.184;2023-07-31T11:55:26;17.80;99.90
15900;DHT22;8048;50.644;6.184;2023-07-31T11:57:52;17.80;99.90
15900;DHT22;8048;50.644;6.184;2023-07-31T12:00:19;17.80;99.90
15900;DHT22;8048;50.644;6.184;2023-07-31T12:02:45;17.70;99.90
15900;DHT22;8048;50.644;6.184;2023-07-31T12:05:14;17.70;99.90
15900;DHT22;8048;50.644;6.184;2023-07-31T12:07:52;17.70;99.90
15900;DHT22;8048;50.644;6.184;2023-07-31T12:10:38;17.70;99.90
15900;DHT22;8048;50.644;6.184;2023-07-31T12:13:08;17.70;99.90
15900;DHT22;8048;50.644;6.184;2023-07-31T12:15:43;17.70;99.90
15900;DHT22;8048;50.644;6.184;2023-07-31T12:18:14;17.80;99.90
15900;DHT22;8048;50.644;6.184;2023-07-31T12:20:48;17.80;99.90
15900;DHT22;8048;50.644;6.184;2023-07-31T12:23:21;17.90;99.90
15900;DHT22;8048;50.644;6.184;2023-07-31T12:26:07;18.00;99.90
15900;DHT22;8048;50.644;6.184;2023-07-31T12:31:02;18.10;99.90
15900;DHT22;8048;50.644;6.184;2023-07-31T12:33:32;18.20;99.90
15900;DHT22;8048;50.644;6.184;2023-07-31T12:36:00;18.20;99.90
15900;DHT22;8048;50.644;6.184;2023-07-31T12:38:26;18.20;99.90
15900;DHT22;8048;50.644;6.184;2023-07-31T12:40:51;18.20;99.90
15900;DHT22;8048;50.644;6.184;2023-07-31T12:43:17;18.20;99.90
15900;DHT22;8048;50.644;6.184;2023-07-31T12:45:42;18.30;99.90
15900;DHT22;8048;50.644;6.184;2023-07-31T12:48:08;18.40;99.90
15900;DHT22;8048;50.644;6.184;2023-07-31T12:50:33;18.50;99.90
15900;DHT22;8048;50.644;6.184;2023-07-31T12:53:02;18.60;99.90
15900;DHT22;8048;50.644;6.184;2023-07-31T12:55:28;18.60;99.90
15900;DHT22;8048;50.644;6.184;2023-07-31T12:57:55;18.70;99.90
15900;DHT22;8048;50.644;6.184;2023-07-31T13:00:21;18.80;99.90
15900;DHT22;8048;50.644;6.184;2023-07-31T13:02:46;18.90;99.90
15900;DHT22;8048;50.644;6.184;2023-07-31T13:05:12;19.10;99.90
15900;DHT22;8048;50.644;6.184;2023-07-31T13:07:39;19.30;99.90
15900;DHT22;8048;50.644;6.184;2023-07-31T13:10:05;19.40;99.90
15900;DHT22;8048;50.644;6.184;2023-07-31T13:12:31;19.60;99.90
15900;DHT22;8048;50.644;6.184;2023-07-31T13:14:56;19.60;99.90
15900;DHT22;8048;50.644;6.184;2023-07-31T13:17:22;19.90;99.90
15900;DHT22;8048;50.644;6.184;2023-07-31T13:19:47;20.20;99.90
15900;DHT22;8048;50.644;6.184;2023-07-31T13:22:13;20.50;99.90
15900;DHT22;8048;50.644;6.184;2023-07-31T13:24:38;20.70;99.90
15900;DHT22;8048;50.644;6.184;2023-07-31T13:27:04;20.90;99.90
15900;DHT22;8048;50.644;6.184;2023-07-31T13:29:30;20.70;99.90
15900;DHT22;8048;50.644;6.184;2023-07-31T13:31:55;20.60;99.90
15900;DHT22;8048;50.644;6.184;2023-07-31T13:34:21;20.20;99.90
15900;DHT22;8048;50.644;6.184;2023-07-31T13:36:47;19.80;99.90
15900;DHT22;8048;50.644;6.184;2023-07-31T13:39:12;19.50;99.90
15900;DHT22;8048;50.644;6.184;2023-07-31T13:41:38;19.40;99.90
15900;DHT22;8048;50.644;6.184;2023-07-31T13:44:03;19.30;99.90
15900;DHT22;8048;50.644;6.184;2023-07-31T13:46:29;19.40;99.90
15900;DHT22;8048;50.644;6.184;2023-07-31T13:48:54;19.60;99.90
15900;DHT22;8048;50.644;6.184;2023-07-31T13:51:21;19.60;99.90
15900;DHT22;8048;50.644;6.184;2023-07-31T13:53:47;19.50;99.90
15900;DHT22;8048;50.644;6.184;2023-07-31T13:56:13;19.50;99.90
15900;DHT22;8048;50.644;6.184;2023-07-31T13:58:39;19.40;99.90
15900;DHT22;8048;50.644;6.184;2023-07-31T14:01:04;19.40;99.90
15900;DHT22;8048;50.644;6.184;2023-07-31T14:03:30;19.20;99.90
15900;DHT22;8048;50.644;6.184;2023-07-31T14:05:56;19.00;99.90
15900;DHT22;8048;50.644;6.184;2023-07-31T14:08:22;18.90;99.90
15900;DHT22;8048;50.644;6.184;2023-07-31T14:10:47;18.80;99.90
15900;DHT22;8048;50.644;6.184;2023-07-31T14:13:13;18.70;99.90
15900;DHT22;8048;50.644;6.184;2023-07-31T14:15:41;18.70;99.90
15900;DHT22;8048;50.644;6.184;2023-07-31T14:18:07;18.60;99.90
15900;DHT22;8048;50.644;6.184;2023-07-31T14:20:33;18.60;99.90
15900;DHT22;8048;50.644;6.184;2023-07-31T14:22:58;18.60;99.90
15900;DHT22;8048;50.644;6.184;2023-07-31T14:25:24;18.50;99.90
15900;DHT22;8048;50.644;6.184;2023-07-31T14:27:50;18.40;99.90
15900;DHT22;8048;50.644;6.184;2023-07-31T14:30:15;18.40;99.90
15900;DHT22;8048;50.644;6.184;2023-07-31T14:32:42;18.30;99.90
15900;DHT22;8048;50.644;6.184;2023-07-31T14:35:08;18.10;99.90
15900;DHT22;8048;50.644;6.184;2023-07-31T14:37:41;18.10;99.90
15900;DHT22;8048;50.644;6.184;2023-07-31T14:40:08;18.10;99.90
15900;DHT22;8048;50.644;6.184;2023-07-31T14:42:34;18.10;99.90
15900;DHT22;8048;50.644;6.184;2023-07-31T14:45:00;18.20;99.90
15900;DHT22;8048;50.644;6.184;2023-07-31T14:47:26;18.20;99.90
15900;DHT22;8048;50.644;6.184;2023-07-31T14:49:51;18.20;99.90
15900;DHT22;8048;50.644;6.184;2023-07-31T14:52:17;18.20;99.90
15900;DHT22;8048;50.644;6.184;2023-07-31T14:54:43;18.10;99.90
15900;DHT22;8048;50.644;6.184;2023-07-31T14:57:09;18.10;99.90
15900;DHT22;8048;50.644;6.184;2023-07-31T14:59:34;18.10;99.90
15900;DHT22;8048;50.644;6.184;2023-07-31T15:02:00;18.10;99.90
15900;DHT22;8048;50.644;6.184;2023-07-31T15:04:25;18.20;99.90
15900;DHT22;8048;50.644;6.184;2023-07-31T15:06:52;18.30;99.90
15900;DHT22;8048;50.644;6.184;2023-07-31T15:09:18;18.40;99.90
15900;DHT22;8048;50.644;6.184;2023-07-31T15:11:43;18.50;99.90
15900;DHT22;8048;50.644;6.184;2023-07-31T15:14:09;18.40;99.90
15900;DHT22;8048;50.644;6.184;2023-07-31T15:16:34;18.30;99.90
15900;DHT22;8048;50.644;6.184;2023-07-31T15:19:00;18.30;99.90
15900;DHT22;8048;50.644;6.184;2023-07-31T15:21:26;18.20;99.90
15900;DHT22;8048;50.644;6.184;2023-07-31T15:23:51;18.00;99.90
15900;DHT22;8048;50.644;6.184;2023-07-31T15:26:17;18.00;99.90
15900;DHT22;8048;50.644;6.184;2023-07-31T15:28:48;17.90;99.90
15900;DHT22;8048;50.644;6.184;2023-07-31T15:31:24;17.70;99.90
15900;DHT22;8048;50.644;6.184;2023-07-31T15:33:49;17.70;99.90
15900;DHT22;8048;50.644;6.184;2023-07-31T15:36:15;17.60;99.90
15900;DHT22;8048;50.644;6.184;2023-07-31T15:38:42;17.50;99.90
15900;DHT22;8048;50.644;6.184;2023-07-31T15:41:08;17.50;99.90
15900;DHT22;8048;50.644;6.184;2023-07-31T15:43:33;17.50;99.90
15900;DHT22;8048;50.644;6.184;2023-07-31T15:45:59;17.40;99.90
15900;DHT22;8048;50.644;6.184;2023-07-31T15:48:24;17.40;99.90
15900;DHT22;8048;50.644;6.184;2023-07-31T15:50:50;17.50;99.90
15900;DHT22;8048;50.644;6.184;2023-07-31T15:53:15;17.50;99.90
15900;DHT22;8048;50.644;6.184;2023-07-31T15:55:41;17.40;99.90
15900;DHT22;8048;50.644;6.184;2023-07-31T15:58:06;17.40;99.90
15900;DHT22;8048;50.644;6.184;2023-07-31T16:00:35;17.30;99.90
15900;DHT22;8048;50.644;6.184;2023-07-31T16:03:01;17.30;99.90